Time;durP1;ratioP1;P1;durP2;ratioP2;P2;SDS_P1;SDS_P2;PMS_P1;PMS_P2;Temp;Humidity;BMP_temperature;BMP_pressure;BME280_temperature;BME280_humidity;BME280_pressure;Samples;Min_cycle;Max_cycle;Signal;HPM_P1;HPM_P2
2022/03/07 00:00:19;;;;;;;15.50;11.45;;;;;;;-2.90;92.28;102708.72;1044158;28;20295;-79
2022/03/07 00:00:51;;;;;;;12.27;11.07;;;;;;;-2.84;92.32;102710.16;1044597;28;20369;-79
2022/03/07 00:01:25;;;;;;;12.63;10.18;;;;;;;-2.83;92.35;102702.22;1043758;28;20419;-74
2022/03/07 00:01:58;;;;;;;13.52;11.15;;;;;;;-2.86;91.95;102712.84;1043843;28;20662;-73
2022/03/07 00:02:30;;;;;;;12.35;11.18;;;;;;;-2.83;91.82;102702.22;1035829;28;20383;-74
2022/03/07 00:03:02;;;;;;;11.73;10.50;;;;;;;-2.87;91.55;102711.16;1036075;28;20798;-73
2022/03/07 00:03:34;;;;;;;12.07;10.88;;;;;;;-2.78;91.60;102703.75;1036580;28;20300;-78
2022/03/07 00:04:06;;;;;;;12.50;11.35;;;;;;;-2.79;91.62;102710.72;1036940;28;20386;-79
2022/03/07 00:04:37;;;;;;;12.27;10.98;;;;;;;-2.86;91.42;102706.78;1044121;28;20804;-80
2022/03/07 00:05:09;;;;;;;13.02;11.63;;;;;;;-2.90;91.73;102707.88;1035682;28;20784;-79
2022/03/07 00:05:41;;;;;;;14.25;11.07;;;;;;;-3.00;91.41;102704.09;1036235;28;20311;-79
2022/03/07 00:06:12;;;;;;;11.55;10.45;;;;;;;-3.02;91.75;102704.16;1039708;28;20423;-79
2022/03/07 00:06:45;;;;;;;14.82;11.35;;;;;;;-3.04;91.85;102707.75;1036207;28;20416;-79
2022/03/07 00:07:16;;;;;;;12.07;10.75;;;;;;;-3.00;91.56;102704.94;1036212;28;20300;-79
2022/03/07 00:07:48;;;;;;;15.52;11.25;;;;;;;-2.94;91.85;102695.94;1036069;28;20331;-79
2022/03/07 00:08:19;;;;;;;17.42;11.57;;;;;;;-2.88;91.48;102704.25;1032307;28;20348;-79
2022/03/07 00:09:06;;;;;;;14.38;11.38;;;;;;;-2.86;91.76;102702.41;1038342;28;20289;-79
2022/03/07 00:09:38;;;;;;;14.50;12.32;;;;;;;-3.04;91.68;102700.78;1042494;28;20292;-80
2022/03/07 00:10:10;;;;;;;13.63;11.07;;;;;;;-3.05;91.64;102699.09;1043958;28;20299;-80
2022/03/07 00:10:41;;;;;;;13.60;11.15;;;;;;;-3.13;92.02;102699.53;1043601;28;20316;-79
2022/03/07 00:11:13;;;;;;;12.98;11.68;;;;;;;-3.06;91.77;102700.03;1044248;28;20310;-79
2022/03/07 00:11:44;;;;;;;13.30;12.05;;;;;;;-2.99;91.92;102704.00;1043742;28;20307;-79
2022/03/07 00:12:16;;;;;;;19.25;11.93;;;;;;;-2.99;92.03;102709.22;1040271;28;20385;-79
2022/03/07 00:12:47;;;;;;;12.93;11.63;;;;;;;-2.99;91.94;102700.56;1044013;28;20295;-79
2022/03/07 00:13:19;;;;;;;14.68;11.32;;;;;;;-2.96;91.85;102706.44;1043960;28;20298;-79
2022/03/07 00:13:53;;;;;;;11.88;10.77;;;;;;;-2.90;91.75;102707.88;1040217;28;20462;-79
2022/03/07 00:14:25;;;;;;;11.80;10.65;;;;;;;-3.03;91.93;102699.00;1039917;28;20352;-79
2022/03/07 00:14:56;;;;;;;10.98;9.98;;;;;;;-3.08;91.70;102701.88;1031633;28;20301;-79
2022/03/07 00:15:28;;;;;;;10.50;9.57;;;;;;;-3.07;91.91;102698.34;1032212;28;20808;-80
2022/03/07 00:16:01;;;;;;;10.32;9.32;;;;;;;-3.02;91.77;102695.47;1032555;28;20312;-79
2022/03/07 00:16:33;;;;;;;15.43;10.70;;;;;;;-3.13;91.70;102696.91;1032437;28;20447;-80
2022/03/07 00:17:05;;;;;;;10.13;9.15;;;;;;;-3.29;92.21;102703.00;1035541;28;20803;-79
2022/03/07 00:17:37;;;;;;;9.88;8.80;;;;;;;-3.36;91.99;102697.28;1036494;28;20350;-79
2022/03/07 00:18:09;;;;;;;10.57;9.48;;;;;;;-3.30;92.27;102698.72;1040825;28;20353;-79
2022/03/07 00:18:40;;;;;;;11.52;9.70;;;;;;;-3.26;92.23;102702.88;1044205;28;20299;-79
2022/03/07 00:19:12;;;;;;;9.85;8.95;;;;;;;-3.37;92.53;102703.41;1039761;28;20296;-79
2022/03/07 00:19:44;;;;;;;12.00;10.15;;;;;;;-3.49;92.36;102707.50;1035532;28;20292;-80
2022/03/07 00:20:15;;;;;;;11.93;9.88;;;;;;;-3.46;92.37;102702.13;1035788;28;20293;-79
2022/03/07 00:20:47;;;;;;;10.85;9.80;;;;;;;-3.52;92.65;102707.66;1035979;28;20308;-79
2022/03/07 00:21:19;;;;;;;10.40;9.50;;;;;;;-3.59;92.93;102708.88;1036021;28;20661;-79
2022/03/07 00:21:51;;;;;;;12.27;11.07;;;;;;;-3.63;92.86;102704.75;1040343;28;20303;-80
2022/03/07 00:22:22;;;;;;;12.73;10.25;;;;;;;-3.69;93.17;102707.69;1044026;28;20307;-79
2022/03/07 00:22:54;;;;;;;10.40;9.45;;;;;;;-3.64;92.83;102702.22;1043897;28;20663;-79
2022/03/07 00:23:25;;;;;;;11.20;9.55;;;;;;;-3.54;93.46;102706.06;1044080;28;20331;-80
2022/03/07 00:23:57;;;;;;;10.80;9.80;;;;;;;-3.45;93.16;102708.19;1039568;28;20296;-79
2022/03/07 00:24:29;;;;;;;11.52;10.23;;;;;;;-3.60;93.38;102704.59;1039248;28;20307;-74
2022/03/07 00:25:00;;;;;;;13.52;10.35;;;;;;;-3.35;93.34;102703.34;1040454;28;20632;-73
2022/03/07 00:25:32;;;;;;;10.50;9.40;;;;;;;-3.36;93.11;102704.25;1043960;28;20350;-74
2022/03/07 00:26:05;;;;;;;12.82;11.02;;;;;;;-3.49;92.94;102706.66;1043627;28;20309;-74
2022/03/07 00:26:37;;;;;;;14.13;9.90;;;;;;;-3.49;92.90;102702.31;1044179;28;20299;-74
2022/03/07 00:27:09;;;;;;;11.23;10.23;;;;;;;-3.46;92.99;102702.13;1039659;28;20831;-79
2022/03/07 00:27:40;;;;;;;11.77;10.65;;;;;;;-3.44;92.82;102710.72;1039911;28;20676;-79
2022/03/07 00:28:14;;;;;;;11.85;10.73;;;;;;;-3.38;92.64;102698.28;1040168;28;20735;-78
2022/03/07 00:28:47;;;;;;;10.40;9.48;;;;;;;-3.38;92.60;102708.72;1039891;28;20307;-79
2022/03/07 00:29:18;;;;;;;10.77;9.73;;;;;;;-3.39;92.62;102709.63;1039352;28;20304;-79
2022/03/07 00:29:50;;;;;;;11.32;9.68;;;;;;;-3.37;92.62;102699.97;1040407;28;20350;-79
2022/03/07 00:30:22;;;;;;;14.75;10.88;;;;;;;-3.39;92.22;102704.41;1044115;28;20771;-80
2022/03/07 00:30:53;;;;;;;11.65;10.45;;;;;;;-3.47;91.98;102710.88;1043780;28;20303;-79
2022/03/07 00:31:25;;;;;;;12.27;9.73;;;;;;;-3.45;91.92;102708.19;1043917;28;20295;-80
2022/03/07 00:31:57;;;;;;;11.60;9.90;;;;;;;-3.51;92.02;102704.16;1043940;28;20303;-76
2022/03/07 00:32:29;;;;;;;11.88;10.68;;;;;;;-3.60;91.82;102704.59;1040222;28;20303;-74
2022/03/07 00:33:01;;;;;;;14.52;11.05;;;;;;;-3.69;92.25;102709.44;1039819;28;20370;-74
2022/03/07 00:33:34;;;;;;;12.02;10.57;;;;;;;-3.72;91.99;102705.22;1035888;28;20363;-74
2022/03/07 00:34:05;;;;;;;14.63;10.10;;;;;;;-3.89;92.76;102710.44;1036495;28;20799;-74
2022/03/07 00:34:37;;;;;;;16.40;11.07;;;;;;;-3.96;92.50;102712.50;1036230;28;20304;-73
2022/03/07 00:35:10;;;;;;;11.93;10.55;;;;;;;-3.93;92.71;102707.16;1036530;28;20309;-74
2022/03/07 00:35:42;;;;;;;11.50;10.38;;;;;;;-3.84;93.02;102701.47;1039238;28;20292;-73
2022/03/07 00:36:14;;;;;;;11.85;10.55;;;;;;;-3.75;92.91;102705.41;1036467;28;20355;-73
2022/03/07 00:36:46;;;;;;;18.45;10.15;;;;;;;-3.77;92.49;102713.28;1036172;28;20319;-74
2022/03/07 00:37:18;;;;;;;11.98;10.75;;;;;;;-3.78;92.13;102708.16;1040038;28;20303;-74
2022/03/07 00:37:49;;;;;;;13.65;10.60;;;;;;;-3.77;92.33;102707.22;1034035;28;20301;-74
2022/03/07 00:38:21;;;;;;;13.73;12.27;;;;;;;-3.77;92.73;102718.50;1031905;28;20309;-73
2022/03/07 00:38:52;;;;;;;14.52;10.98;;;;;;;-3.74;92.54;102707.06;1035932;28;20334;-73
2022/03/07 00:39:24;;;;;;;12.73;10.82;;;;;;;-3.68;92.66;102711.97;1035796;28;20416;-73
2022/03/07 00:39:55;;;;;;;14.45;12.70;;;;;;;-3.59;92.45;102714.09;1035651;28;20304;-80
2022/03/07 00:40:27;;;;;;;12.45;11.30;;;;;;;-3.63;92.58;102714.34;1039731;28;20284;-80
2022/03/07 00:40:58;;;;;;;12.82;11.52;;;;;;;-3.85;93.18;102709.34;1036091;28;20296;-80
2022/03/07 00:41:30;;;;;;;13.13;11.57;;;;;;;-3.78;93.35;102705.56;1035967;28;20362;-74
2022/03/07 00:42:02;;;;;;;11.90;10.70;;;;;;;-3.70;93.40;102711.22;1035714;28;20297;-74
2022/03/07 00:42:34;;;;;;;14.65;11.85;;;;;;;-3.65;92.97;102711.81;1036203;28;20641;-80
2022/03/07 00:43:09;;;;;;;12.88;11.52;;;;;;;-3.65;92.65;102711.81;1036215;28;20355;-79
2022/03/07 00:43:41;;;;;;;15.55;11.65;;;;;;;-3.68;92.84;102711.97;1040573;28;20304;-80
2022/03/07 00:44:13;;;;;;;12.32;11.13;;;;;;;-3.72;92.90;102715.66;1044010;28;20382;-79
2022/03/07 00:44:47;;;;;;;12.02;10.90;;;;;;;-3.67;93.02;102708.44;1041260;28;20307;-80
2022/03/07 00:45:18;;;;;;;13.13;11.82;;;;;;;-3.70;92.85;102716.41;1043617;28;20307;-81
2022/03/07 00:45:53;;;;;;;11.68;10.60;;;;;;;-3.71;92.78;102706.91;1039692;28;20327;-80
2022/03/07 00:46:25;;;;;;;14.63;11.15;;;;;;;-3.67;92.72;102708.44;1036936;28;20299;-80
2022/03/07 00:46:56;;;;;;;14.10;11.93;;;;;;;-3.72;92.45;102713.03;1039848;28;20641;-79
2022/03/07 00:47:28;;;;;;;14.15;11.43;;;;;;;-3.72;92.33;102709.59;1040730;28;20308;-80
2022/03/07 00:47:59;;;;;;;15.80;12.07;;;;;;;-3.75;92.54;102713.22;1043548;28;20810;-80
2022/03/07 00:48:31;;;;;;;12.43;10.85;;;;;;;-3.71;92.41;102713.88;1039852;28;20312;-80
2022/03/07 00:49:03;;;;;;;13.57;10.95;;;;;;;-3.67;92.16;102716.25;1034709;28;20312;-74
2022/03/07 00:49:34;;;;;;;12.07;11.05;;;;;;;-3.63;92.51;102712.56;1035446;28;20304;-74
2022/03/07 00:50:06;;;;;;;16.52;11.70;;;;;;;-3.62;92.30;102716.84;1032019;28;20298;-73
2022/03/07 00:50:44;;;;;;;11.52;10.48;;;;;;;-3.61;92.34;102718.53;1036458;28;20311;-74
2022/03/07 00:51:15;;;;;;;12.65;11.35;;;;;;;-3.65;92.20;102717.00;1039642;28;20377;-74
2022/03/07 00:51:48;;;;;;;16.45;11.38;;;;;;;-3.66;92.21;102715.34;1040895;28;20659;-74
2022/03/07 00:52:19;;;;;;;13.20;11.50;;;;;;;-3.67;92.05;102712.81;1035916;28;20300;-74
2022/03/07 00:52:51;;;;;;;15.18;11.48;;;;;;;-3.69;92.26;102720.69;1032772;28;20674;-74
2022/03/07 00:53:25;;;;;;;13.35;11.48;;;;;;;-3.67;92.35;102720.63;1035512;28;20309;-74
2022/03/07 00:53:56;;;;;;;13.98;12.38;;;;;;;-3.70;92.22;102718.19;1036406;28;20303;-74
2022/03/07 00:54:28;;;;;;;17.35;12.15;;;;;;;-3.70;92.36;102715.56;1040206;28;20311;-74
2022/03/07 00:54:59;;;;;;;19.15;11.80;;;;;;;-3.62;92.26;102721.22;1043879;28;20306;-74
2022/03/07 00:55:32;;;;;;;18.70;12.10;;;;;;;-3.61;92.32;102718.53;1043945;28;20393;-74
2022/03/07 00:56:03;;;;;;;12.60;11.35;;;;;;;-3.70;92.45;102729.44;1043637;28;20664;-74
2022/03/07 00:56:37;;;;;;;18.15;12.75;;;;;;;-3.80;92.66;102721.25;1039820;28;20303;-74
2022/03/07 00:57:08;;;;;;;17.83;12.73;;;;;;;-3.82;92.79;102724.84;1039412;28;20300;-74
2022/03/07 00:57:40;;;;;;;23.45;12.02;;;;;;;-3.87;92.70;102711.19;1032307;28;20328;-74
2022/03/07 00:58:12;;;;;;;15.18;12.38;;;;;;;-3.88;92.84;102719.94;1036294;28;20390;-79
2022/03/07 00:58:44;;;;;;;19.10;13.57;;;;;;;-3.98;92.71;102723.91;1035484;28;20303;-79
2022/03/07 00:59:18;;;;;;;13.55;11.73;;;;;;;-3.98;93.27;102723.91;1037233;28;20340;-80
2022/03/07 00:59:50;;;;;;;12.77;11.43;;;;;;;-3.96;93.37;102725.53;1039634;28;20371;-80
2022/03/07 01:00:21;;;;;;;13.13;11.00;;;;;;;-3.88;93.61;102730.34;1039783;28;20308;-80
2022/03/07 01:00:53;;;;;;;12.43;10.80;;;;;;;-3.97;93.40;102720.41;1039622;28;20307;-79
2022/03/07 01:01:25;;;;;;;13.15;11.25;;;;;;;-4.06;92.78;102726.91;1034994;28;20300;-79
2022/03/07 01:01:57;;;;;;;12.23;10.95;;;;;;;-3.96;93.07;102727.28;1032182;28;20305;-80
2022/03/07 01:02:30;;;;;;;14.73;11.68;;;;;;;-3.86;92.82;102718.09;1036362;28;20301;-78
2022/03/07 01:03:05;;;;;;;12.07;10.88;;;;;;;-3.89;92.63;102723.44;1040816;28;20707;-80
2022/03/07 01:03:37;;;;;;;12.48;10.65;;;;;;;-3.84;92.89;102727.50;1044284;28;20767;-80
2022/03/07 01:04:09;;;;;;;11.48;10.30;;;;;;;-3.82;92.74;102724.84;1039046;28;20346;-80
2022/03/07 01:04:41;;;;;;;12.65;11.55;;;;;;;-3.83;92.73;102728.38;1035078;28;20297;-81
2022/03/07 01:05:12;;;;;;;13.00;11.73;;;;;;;-3.76;92.64;102724.53;1035726;28;20676;-80
2022/03/07 01:05:46;;;;;;;11.18;10.07;;;;;;;-3.80;92.67;102725.63;1031812;28;20823;-80
2022/03/07 01:06:19;;;;;;;13.07;11.82;;;;;;;-3.92;92.69;102723.59;1036235;28;20304;-80
2022/03/07 01:06:50;;;;;;;11.80;10.68;;;;;;;-3.92;92.60;102729.66;1035480;28;20856;-80
2022/03/07 01:07:23;;;;;;;12.82;11.45;;;;;;;-3.98;92.74;102719.56;1035614;28;20307;-80
2022/03/07 01:07:54;;;;;;;12.10;10.93;;;;;;;-3.89;92.37;102728.66;1039828;28;20300;-80
2022/03/07 01:08:26;;;;;;;13.05;11.45;;;;;;;-3.89;92.41;102736.47;1043698;28;20314;-80
2022/03/07 01:08:58;;;;;;;11.68;10.68;;;;;;;-3.85;92.00;102732.78;1044003;28;20299;-80
2022/03/07 01:09:29;;;;;;;13.98;10.65;;;;;;;-3.82;92.00;102730.06;1035533;28;20305;-80
2022/03/07 01:10:01;;;;;;;12.30;10.90;;;;;;;-3.77;92.22;102733.28;1035132;28;20389;-80
2022/03/07 01:10:34;;;;;;;15.10;11.27;;;;;;;-3.80;91.95;102729.06;1036253;28;20323;-80
2022/03/07 01:11:06;;;;;;;12.75;11.30;;;;;;;-3.79;91.96;102729.91;1034486;28;20294;-80
2022/03/07 01:11:37;;;;;;;15.00;10.90;;;;;;;-3.82;91.75;102732.66;1039718;28;20299;-80
2022/03/07 01:12:09;;;;;;;13.70;12.07;;;;;;;-4.00;91.90;102736.16;1035361;28;20300;-80
2022/03/07 01:12:42;;;;;;;12.82;10.50;;;;;;;-4.00;91.96;102730.97;1036239;28;20443;-80
2022/03/07 01:13:14;;;;;;;18.20;10.32;;;;;;;-4.01;92.12;102739.69;1036311;28;20383;-80
2022/03/07 01:13:45;;;;;;;11.70;10.65;;;;;;;-4.00;92.11;102725.75;1036117;28;20339;-81
2022/03/07 01:14:17;;;;;;;16.48;11.43;;;;;;;-4.05;92.00;102736.41;1035642;28;20315;-80
2022/03/07 01:14:49;;;;;;;16.05;10.43;;;;;;;-4.03;91.79;102733.72;1036256;28;20295;-80
2022/03/07 01:15:21;;;;;;;11.18;9.93;;;;;;;-4.02;91.79;102730.19;1040078;28;20296;-80
2022/03/07 01:15:53;;;;;;;12.23;10.48;;;;;;;-4.04;91.62;102730.28;1043724;28;20445;-79
2022/03/07 01:16:25;;;;;;;11.10;9.77;;;;;;;-4.13;91.51;102736.75;1044277;28;20284;-75
2022/03/07 01:16:56;;;;;;;12.20;10.80;;;;;;;-4.17;91.23;102735.22;1043972;28;20299;-74
2022/03/07 01:17:28;;;;;;;12.82;10.48;;;;;;;-4.09;91.89;102732.25;1044104;28;20314;-75
2022/03/07 01:18:00;;;;;;;13.60;10.35;;;;;;;-4.03;91.73;102731.13;1043585;28;20308;-74
2022/03/07 01:18:32;;;;;;;16.48;12.00;;;;;;;-4.16;92.18;102731.69;1043664;28;20702;-74
2022/03/07 01:19:04;;;;;;;16.33;12.43;;;;;;;-4.27;92.38;102728.78;1043338;28;20385;-74
2022/03/07 01:19:36;;;;;;;14.48;12.55;;;;;;;-4.32;92.53;102735.13;1039663;28;20775;-74
2022/03/07 01:20:08;;;;;;;13.02;11.68;;;;;;;-4.38;92.61;102731.06;1035946;28;20367;-74
2022/03/07 01:20:41;;;;;;;16.65;11.48;;;;;;;-4.33;92.23;102729.09;1031297;28;20297;-74
2022/03/07 01:21:13;;;;;;;13.63;12.23;;;;;;;-4.23;93.04;102732.91;1031670;28;20355;-74
2022/03/07 01:21:45;;;;;;;13.07;11.77;;;;;;;-4.16;92.77;102736.06;1031651;28;20289;-74
2022/03/07 01:22:17;;;;;;;14.07;12.38;;;;;;;-4.32;92.79;102725.56;1028666;28;20298;-74
2022/03/07 01:22:48;;;;;;;15.05;12.93;;;;;;;-4.34;92.87;102726.56;1036446;28;20304;-74
2022/03/07 01:23:20;;;;;;;16.38;12.50;;;;;;;-4.19;93.26;102731.00;1039674;28;20292;-74
2022/03/07 01:23:52;;;;;;;12.63;11.45;;;;;;;-4.15;92.96;102722.97;1036465;28;20303;-75
2022/03/07 01:24:24;;;;;;;14.20;12.80;;;;;;;-4.09;92.93;102725.31;1039556;28;20332;-74
2022/03/07 01:24:55;;;;;;;14.80;11.45;;;;;;;-4.14;92.94;102722.06;1039697;28;20345;-74
2022/03/07 01:25:28;;;;;;;14.90;12.63;;;;;;;-4.28;92.71;102727.09;1035486;28;20316;-74
2022/03/07 01:25:59;;;;;;;13.02;11.73;;;;;;;-4.22;93.39;102724.19;1038752;28;20323;-74
2022/03/07 01:26:31;;;;;;;12.60;11.30;;;;;;;-4.17;93.33;102730.00;1039811;28;20734;-74
2022/03/07 01:27:04;;;;;;;16.58;11.60;;;;;;;-4.12;93.14;102720.22;1032109;28;20813;-75
2022/03/07 01:27:36;;;;;;;12.63;11.27;;;;;;;-4.15;93.18;102725.56;1031439;28;20765;-74
2022/03/07 01:28:07;;;;;;;13.52;12.13;;;;;;;-4.13;92.96;102721.13;1028376;28;20360;-74
2022/03/07 01:28:39;;;;;;;13.23;11.80;;;;;;;-4.00;93.50;102728.34;1032638;28;20317;-75
2022/03/07 01:29:10;;;;;;;14.27;12.68;;;;;;;-4.03;93.05;102720.72;1040178;28;20374;-74
2022/03/07 01:29:42;;;;;;;18.23;11.60;;;;;;;-4.10;92.89;102721.00;1043779;28;20295;-74
2022/03/07 01:30:13;;;;;;;14.93;11.45;;;;;;;-4.09;93.14;102722.69;1043585;28;20361;-74
2022/03/07 01:30:48;;;;;;;16.85;11.85;;;;;;;-4.19;93.08;102725.81;1043707;28;20295;-74
2022/03/07 01:31:21;;;;;;;15.02;13.02;;;;;;;-4.25;93.36;102721.75;1039462;28;20358;-74
2022/03/07 01:31:53;;;;;;;17.08;12.30;;;;;;;-4.26;93.49;102725.25;1040823;28;20660;-75
2022/03/07 01:32:26;;;;;;;15.07;12.40;;;;;;;-4.30;93.39;102726.34;1041630;28;20668;-74
2022/03/07 01:32:58;;;;;;;16.65;13.73;;;;;;;-4.38;93.94;102721.50;1043502;28;20310;-74
2022/03/07 01:33:29;;;;;;;14.05;12.63;;;;;;;-4.41;93.34;102718.19;1043518;28;20632;-74
2022/03/07 01:34:01;;;;;;;14.80;13.18;;;;;;;-4.28;94.16;102723.66;1043697;28;20303;-74
2022/03/07 01:34:33;;;;;;;13.80;12.27;;;;;;;-4.21;93.54;102728.47;1035374;28;20301;-74
2022/03/07 01:35:06;;;;;;;13.80;11.88;;;;;;;-4.28;94.06;102726.25;1031661;28;20305;-74
2022/03/07 01:35:37;;;;;;;14.07;12.25;;;;;;;-4.33;94.24;102720.44;1031544;28;20336;-74
2022/03/07 01:36:09;;;;;;;16.88;12.80;;;;;;;-4.28;93.86;102716.69;1024558;28;20307;-74
2022/03/07 01:36:41;;;;;;;12.68;11.38;;;;;;;-4.20;93.90;102719.75;1032220;28;20658;-74
2022/03/07 01:37:12;;;;;;;12.88;11.57;;;;;;;-4.36;93.57;102718.81;1032064;28;20343;-74
2022/03/07 01:37:45;;;;;;;12.90;11.50;;;;;;;-4.44;94.09;102718.31;1035818;28;20355;-74
2022/03/07 01:38:16;;;;;;;14.35;11.05;;;;;;;-4.40;94.40;102725.06;1034612;28;20320;-74
2022/03/07 01:38:48;;;;;;;13.88;12.27;;;;;;;-4.40;93.80;102722.47;1035507;28;20304;-74
2022/03/07 01:39:20;;;;;;;13.25;11.88;;;;;;;-4.47;94.01;102728.88;1027979;28;20306;-74
2022/03/07 01:39:52;;;;;;;13.68;12.23;;;;;;;-4.43;94.94;102722.63;1032160;28;20651;-74
2022/03/07 01:40:23;;;;;;;11.98;10.77;;;;;;;-4.36;94.29;102729.22;1035286;28;20297;-74
2022/03/07 01:40:55;;;;;;;11.95;10.35;;;;;;;-4.40;94.06;102722.47;1036569;28;20285;-74
2022/03/07 01:41:28;;;;;;;12.50;11.05;;;;;;;-4.39;94.16;102722.38;1043576;28;20306;-74
2022/03/07 01:42:00;;;;;;;12.88;10.63;;;;;;;-4.39;94.40;102729.34;1040282;28;20660;-74
2022/03/07 01:42:32;;;;;;;13.75;12.32;;;;;;;-4.43;94.53;102730.41;1043591;28;20361;-74
2022/03/07 01:43:06;;;;;;;12.43;11.13;;;;;;;-4.36;93.92;102729.22;1043251;28;20747;-74
2022/03/07 01:43:37;;;;;;;16.33;11.38;;;;;;;-4.44;94.28;102726.13;1039291;28;20308;-74
2022/03/07 01:44:19;;;;;;;12.57;11.05;;;;;;;-4.49;94.41;102728.13;1039529;28;20710;-74
2022/03/07 01:44:51;;;;;;;13.60;11.77;;;;;;;-4.47;94.13;102731.47;1039574;28;20699;-74
2022/03/07 01:45:23;;;;;;;13.15;11.95;;;;;;;-4.52;94.26;102729.09;1039278;28;20304;-75
2022/03/07 01:45:55;;;;;;;12.43;11.23;;;;;;;-4.41;94.14;102731.19;1037648;28;20305;-74
2022/03/07 01:46:28;;;;;;;14.68;12.68;;;;;;;-4.43;94.11;102727.81;1039255;28;20296;-74
2022/03/07 01:47:00;;;;;;;12.57;11.32;;;;;;;-4.34;94.33;102727.41;1036021;28;20339;-74
2022/03/07 01:47:35;;;;;;;13.98;12.60;;;;;;;-4.37;94.29;102727.56;1040633;28;20376;-75
2022/03/07 01:48:06;;;;;;;13.70;12.15;;;;;;;-4.31;94.22;102729.84;1043411;28;20434;-74
2022/03/07 01:48:38;;;;;;;12.40;11.15;;;;;;;-4.44;93.73;102726.97;1043632;28;20299;-74
2022/03/07 01:49:10;;;;;;;12.68;10.93;;;;;;;-4.31;93.63;102731.59;1043638;28;20745;-74
2022/03/07 01:49:41;;;;;;;16.58;11.30;;;;;;;-4.36;94.01;102731.84;1039325;28;20292;-79
2022/03/07 01:50:15;;;;;;;13.35;11.85;;;;;;;-4.32;93.45;102727.31;1035399;28;20300;-79
2022/03/07 01:50:48;;;;;;;14.43;11.85;;;;;;;-4.30;93.77;102721.13;1032086;28;20289;-80
2022/03/07 01:51:20;;;;;;;13.43;11.13;;;;;;;-4.38;93.44;102721.50;1039324;28;20323;-80
2022/03/07 01:51:53;;;;;;;12.73;11.30;;;;;;;-4.51;93.45;102725.59;1036705;28;20769;-80
2022/03/07 01:52:26;;;;;;;14.20;11.65;;;;;;;-4.43;93.83;102726.06;1035840;28;20336;-74
2022/03/07 01:52:58;;;;;;;12.30;10.77;;;;;;;-4.46;93.22;102727.97;1031266;28;20379;-75
2022/03/07 01:53:33;;;;;;;13.40;12.13;;;;;;;-4.49;93.25;102722.91;1035325;28;20309;-74
2022/03/07 01:54:09;;;;;;;14.30;11.30;;;;;;;-4.34;93.36;102726.56;1032530;28;20441;-74
2022/03/07 01:54:40;;;;;;;12.75;11.45;;;;;;;-4.39;93.47;102724.16;1035585;28;20339;-74
2022/03/07 01:55:13;;;;;;;12.70;11.20;;;;;;;-4.43;93.37;102725.22;1032163;28;20887;-74
2022/03/07 01:55:56;;;;;;;14.07;11.90;;;;;;;-4.43;93.52;102722.63;1035500;28;20443;-75
2022/03/07 01:56:30;;;;;;;13.68;11.20;;;;;;;-4.36;93.49;102730.06;1034690;28;20052;-74
2022/03/07 01:57:02;;;;;;;12.77;11.48;;;;;;;-4.31;93.18;102731.59;1031250;28;20637;-74
2022/03/07 01:57:39;;;;;;;13.05;11.63;;;;;;;-4.30;93.10;102728.09;1036558;28;20676;-74
2022/03/07 01:58:11;;;;;;;13.73;11.52;;;;;;;-4.25;93.60;102726.09;1032476;28;20927;-74
2022/03/07 01:58:44;;;;;;;12.02;10.93;;;;;;;-4.38;93.10;102728.47;1036825;28;20304;-74
2022/03/07 01:59:18;;;;;;;11.98;10.88;;;;;;;-4.33;92.94;102728.25;1035076;28;20822;-75
2022/03/07 01:59:51;;;;;;;12.90;11.70;;;;;;;-4.37;93.25;102720.59;1028245;28;20655;-74
2022/03/07 02:00:27;;;;;;;12.73;11.43;;;;;;;-4.40;93.08;102723.31;1027255;28;20306;-75
2022/03/07 02:00:59;;;;;;;12.93;11.63;;;;;;;-4.45;93.51;102724.44;1030555;28;20817;-74
2022/03/07 02:01:31;;;;;;;11.82;10.60;;;;;;;-4.42;93.04;102716.50;1033584;28;20384;-74
2022/03/07 02:02:04;;;;;;;13.35;11.68;;;;;;;-4.43;93.41;102726.06;1032460;28;20721;-74
2022/03/07 02:02:38;;;;;;;12.07;10.85;;;;;;;-4.46;93.27;102722.75;1031087;28;20305;-74
2022/03/07 02:03:12;;;;;;;13.32;11.93;;;;;;;-4.51;93.45;102719.53;1027279;28;20896;-74
2022/03/07 02:03:48;;;;;;;18.25;11.40;;;;;;;-4.50;93.04;102726.44;1031571;28;20653;-74
2022/03/07 02:04:20;;;;;;;13.57;12.13;;;;;;;-4.48;93.37;102719.41;1028450;28;20658;-74
2022/03/07 02:04:52;;;;;;;15.35;11.10;;;;;;;-4.45;93.09;102721.84;1028206;28;20306;-74
2022/03/07 02:05:24;;;;;;;12.30;11.15;;;;;;;-4.40;93.11;102730.25;1028905;28;20385;-74
2022/03/07 02:06:02;;;;;;;11.30;10.00;;;;;;;-4.53;93.12;102721.38;1036584;28;20308;-75
2022/03/07 02:06:38;;;;;;;16.23;11.68;;;;;;;-4.49;93.13;102721.16;1035590;28;20668;-74
2022/03/07 02:07:11;;;;;;;12.85;11.48;;;;;;;-4.47;93.11;102723.69;1027366;28;20842;-74
2022/03/07 02:07:43;;;;;;;13.02;11.73;;;;;;;-4.52;93.18;102725.66;1031082;28;20305;-75
2022/03/07 02:08:15;;;;;;;12.90;11.60;;;;;;;-4.48;93.36;102719.41;1028604;28;20306;-74
2022/03/07 02:09:17;;;;;;;13.00;11.73;;;;;;;-4.53;93.27;102729.19;1031956;28;20316;-74
2022/03/07 02:09:50;;;;;;;14.90;11.08;;;;;;;-4.40;93.00;102725.06;1039702;28;20048;-74
2022/03/07 02:10:28;;;;;;;15.85;12.43;;;;;;;-4.42;93.11;102719.94;1038856;28;20119;-80
2022/03/07 02:11:03;;;;;;;13.05;10.77;;;;;;;-4.35;93.08;102725.72;1030994;28;20301;-79
2022/03/07 02:11:38;;;;;;;16.10;11.63;;;;;;;-4.37;92.90;102722.34;1031276;28;20321;-79
2022/03/07 02:12:12;;;;;;;14.38;11.68;;;;;;;-4.41;92.96;102721.63;1029518;28;20610;-80
2022/03/07 02:12:44;;;;;;;13.98;12.63;;;;;;;-4.38;92.68;102723.25;1028284;28;20309;-80
2022/03/07 02:13:18;;;;;;;13.27;11.77;;;;;;;-4.47;92.38;102718.47;1032178;28;20341;-79
2022/03/07 02:14:09;;;;;;;13.20;11.90;;;;;;;-4.46;92.31;102718.41;1033137;28;20316;-79
2022/03/07 02:14:41;;;;;;;13.65;12.23;;;;;;;-4.43;92.29;102718.25;1038972;28;20049;-79
2022/03/07 02:15:12;;;;;;;15.90;11.66;;;;;;;-4.42;92.62;102719.09;1038379;28;20303;-80
2022/03/07 02:15:52;;;;;;;12.73;11.45;;;;;;;-4.42;92.62;102719.09;1036967;28;20037;-79
2022/03/07 02:16:24;;;;;;;14.57;11.48;;;;;;;-4.33;92.69;102716.06;1035279;28;20292;-80
2022/03/07 02:16:56;;;;;;;12.80;11.40;;;;;;;-4.32;92.30;102715.16;1032505;28;20303;-80
2022/03/07 02:17:27;;;;;;;14.93;11.65;;;;;;;-4.28;92.29;102721.91;1034426;28;20308;-79
2022/03/07 02:18:01;;;;;;;12.82;11.63;;;;;;;-4.33;92.02;102713.47;1036007;28;20309;-76
2022/03/07 02:18:33;;;;;;;13.20;11.95;;;;;;;-4.27;92.40;102718.38;1035958;28;21462;-74
2022/03/07 02:19:25;;;;;;;12.88;11.65;;;;;;;-4.37;91.87;102722.34;1041083;28;20295;-74
2022/03/07 02:19:57;;;;;;;13.13;11.80;;;;;;;-4.35;91.93;102715.31;1045889;28;20314;-74
2022/03/07 02:20:28;;;;;;;12.82;11.52;;;;;;;-4.45;91.73;102714.88;1051000;28;20792;-74
2022/03/07 02:21:16;;;;;;;12.95;11.65;;;;;;;-4.50;92.19;102716.03;1040150;28;20300;-74
2022/03/07 02:22:10;;;;;;;18.30;11.57;;;;;;;-4.59;92.57;102713.88;1032419;28;20890;-74
2022/03/07 02:22:48;;;;;;;14.82;11.75;;;;;;;-4.56;92.71;102726.72;1037611;28;20309;-74
2022/03/07 02:23:19;;;;;;;14.68;13.15;;;;;;;-4.60;92.89;102718.22;1039303;28;20703;-74
2022/03/07 02:23:51;;;;;;;14.63;13.07;;;;;;;-4.61;93.53;102718.31;1031026;28;20305;-74
2022/03/07 02:24:22;;;;;;;15.63;14.00;;;;;;;-4.65;93.40;102724.56;1027862;28;20294;-74
2022/03/07 02:25:02;;;;;;;14.48;13.07;;;;;;;-4.70;93.69;102717.78;1032784;28;20376;-74
2022/03/07 02:25:37;;;;;;;15.22;13.72;;;;;;;-4.75;93.78;102716.31;1039572;28;20796;-74
2022/03/07 02:26:10;;;;;;;14.65;13.18;;;;;;;-4.77;93.79;102719.00;1036158;28;20046;-74
2022/03/07 02:26:42;;;;;;;14.75;13.20;;;;;;;-4.72;94.33;102713.59;1037028;28;20347;-75
2022/03/07 02:27:18;;;;;;;17.05;14.45;;;;;;;-4.78;94.27;102716.47;1035460;28;20297;-74
2022/03/07 02:27:50;;;;;;;15.80;13.96;;;;;;;-4.77;94.56;102720.75;1030043;28;20400;-74
2022/03/07 02:28:23;;;;;;;15.57;14.07;;;;;;;-4.71;94.47;102713.50;1028126;28;20046;-74
2022/03/07 02:28:54;;;;;;;16.20;14.42;;;;;;;-4.73;94.74;102720.53;1031159;28;21003;-75
2022/03/07 02:29:31;;;;;;;16.78;13.22;;;;;;;-4.83;94.46;102719.28;1035143;28;20049;-74